Time,TemperatureF,DewpointF,PressureIn,WindDirection,WindDirectionDegrees,WindSpeedMPH,WindSpeedGustMPH,Humidity,HourlyPrecipIn,Conditions,Clouds,dailyrainin,SolarRadiationWatts/m^2,SoftwareType,DateUTC
2013-07-25 00:22:00,76.0,46.0,-100.00,ENE,76,15.0,23.0,34,0.00,,,0.00,0.000000,,2013-07-25 06:22:00,
2013-07-25 00:32:00,76.0,46.0,-100.00,ENE,76,15.0,23.0,34,0.00,,,0.00,0.000000,,2013-07-25 06:32:00,
2013-07-25 00:42:00,76.0,46.0,-100.00,ENE,76,15.0,23.0,34,0.00,,,0.00,0.000000,,2013-07-25 06:42:00,
2013-07-25 00:52:00,76.0,46.0,-100.00,ENE,76,15.0,23.0,34,0.00,,,0.00,0.000000,,2013-07-25 06:52:00,
2013-07-25 01:33:00,70.0,47.0,-100.00,SSE,167,14.0,28.0,44,0.00,,,0.00,0.000000,,2013-07-25 07:33:00,
2013-07-25 01:43:00,70.0,47.0,-100.00,SSE,167,14.0,28.0,44,0.00,,,0.00,0.000000,,2013-07-25 07:43:00,
2013-07-25 01:53:00,70.0,47.0,-100.00,SSE,167,14.0,28.0,44,0.00,,,0.00,0.000000,,2013-07-25 07:53:00,
2013-07-25 02:32:00,70.0,50.0,-100.00,North,354,14.0,28.0,50,0.00,,,0.00,0.000000,,2013-07-25 08:32:00,
2013-07-25 02:44:00,70.0,50.0,-100.00,North,354,14.0,28.0,50,0.00,,,0.00,0.000000,,2013-07-25 08:44:00,
2013-07-25 02:52:00,70.0,50.0,-100.00,North,354,14.0,28.0,50,0.00,,,0.00,0.000000,,2013-07-25 08:52:00,
2013-07-25 03:33:00,65.0,50.0,-100.00,NE,52,11.0,29.0,58,0.00,,,0.00,0.000000,,2013-07-25 09:33:00,
2013-07-25 03:43:00,65.0,50.0,-100.00,NE,52,11.0,29.0,58,0.00,,,0.00,0.000000,,2013-07-25 09:43:00,
2013-07-25 03:52:00,65.0,50.0,-100.00,NE,52,11.0,29.0,58,0.00,,,0.00,0.000000,,2013-07-25 09:52:00,
2013-07-25 04:32:00,65.0,51.0,-100.00,SE,142,13.0,26.0,61,0.00,,,0.00,0.000000,,2013-07-25 10:32:00,
2013-07-25 04:42:00,65.0,51.0,-100.00,SE,142,13.0,26.0,61,0.00,,,0.00,0.000000,,2013-07-25 10:42:00,
2013-07-25 04:53:00,65.0,51.0,-100.00,SE,142,13.0,26.0,61,0.00,,,0.00,0.000000,,2013-07-25 10:53:00,
2013-07-25 05:22:00,62.0,51.0,-100.00,South,175,2.0,19.0,66,0.00,,,0.00,0.000000,,2013-07-25 11:22:00,
2013-07-25 05:32:00,62.0,51.0,-100.00,South,175,2.0,19.0,66,0.00,,,0.00,0.000000,,2013-07-25 11:32:00,
2013-07-25 05:43:00,62.0,51.0,-100.00,South,175,2.0,19.0,66,0.00,,,0.00,0.000000,,2013-07-25 11:43:00,
2013-07-25 05:52:00,62.0,51.0,-100.00,South,175,2.0,19.0,66,0.00,,,0.00,0.000000,,2013-07-25 11:52:00,
2013-07-25 06:32:00,62.0,51.0,-100.00,ESE,116,7.0,11.0,66,0.00,,,0.00,2.000000,,2013-07-25 12:32:00,
2013-07-25 06:45:00,62.0,51.0,-100.00,ESE,116,7.0,11.0,66,0.00,,,0.00,2.000000,,2013-07-25 12:45:00,
2013-07-25 06:53:00,62.0,51.0,-100.00,ESE,116,7.0,11.0,66,0.00,,,0.00,2.000000,,2013-07-25 12:53:00,
2013-07-25 08:33:00,68.0,55.0,-100.00,NNW,343,3.0,6.0,63,0.00,,,0.00,226.000000,,2013-07-25 14:33:00,
2013-07-25 08:43:00,68.0,55.0,-100.00,NNW,343,3.0,6.0,63,0.00,,,0.00,226.000000,,2013-07-25 14:43:00,
2013-07-25 08:53:00,68.0,55.0,-100.00,NNW,343,3.0,6.0,63,0.00,,,0.00,226.000000,,2013-07-25 14:53:00,
2013-07-25 09:32:00,72.0,53.0,-100.00,NW,307,4.0,7.0,51,0.00,,,0.00,400.000000,,2013-07-25 15:32:00,
2013-07-25 09:44:00,72.0,53.0,-100.00,NW,307,4.0,7.0,51,0.00,,,0.00,400.000000,,2013-07-25 15:44:00,
2013-07-25 09:52:00,72.0,53.0,-100.00,NW,307,4.0,7.0,51,0.00,,,0.00,400.000000,,2013-07-25 15:52:00,
2013-07-25 10:33:00,75.0,53.0,-100.00,NE,56,6.0,9.0,46,0.00,,,0.00,567.000000,,2013-07-25 16:33:00,
2013-07-25 10:45:00,75.0,53.0,-100.00,NE,56,6.0,9.0,46,0.00,,,0.00,567.000000,,2013-07-25 16:45:00,
2013-07-25 10:53:00,75.0,53.0,-100.00,NE,56,6.0,9.0,46,0.00,,,0.00,567.000000,,2013-07-25 16:53:00,
2013-07-25 11:32:00,78.0,54.0,-100.00,NE,45,7.0,11.0,43,0.00,,,0.00,707.000000,,2013-07-25 17:32:00,
2013-07-25 11:43:00,78.0,54.0,-100.00,NE,45,7.0,11.0,43,0.00,,,0.00,707.000000,,2013-07-25 17:43:00,
2013-07-25 11:53:00,78.0,54.0,-100.00,NE,45,7.0,11.0,43,0.00,,,0.00,707.000000,,2013-07-25 17:53:00,
2013-07-25 12:33:00,80.0,53.0,-100.00,ENE,67,5.0,15.0,39,0.00,,,0.00,814.000000,,2013-07-25 18:33:00,
2013-07-25 12:43:00,80.0,53.0,-100.00,ENE,67,5.0,15.0,39,0.00,,,0.00,814.000000,,2013-07-25 18:43:00,
2013-07-25 12:52:00,80.0,53.0,-100.00,ENE,67,5.0,15.0,39,0.00,,,0.00,814.000000,,2013-07-25 18:52:00,
2013-07-25 13:33:00,83.0,53.0,-100.00,ENE,74,5.0,12.0,36,0.00,,,0.00,878.000000,,2013-07-25 19:33:00,
2013-07-25 13:42:00,83.0,53.0,-100.00,ENE,74,5.0,12.0,36,0.00,,,0.00,878.000000,,2013-07-25 19:42:00,
2013-07-25 13:52:00,83.0,53.0,-100.00,ENE,74,5.0,12.0,36,0.00,,,0.00,878.000000,,2013-07-25 19:52:00,
2013-07-25 14:32:00,83.0,51.0,-100.00,ENE,61,9.0,13.0,33,0.00,,,0.00,882.000000,,2013-07-25 20:32:00,
2013-07-25 14:43:00,83.0,51.0,-100.00,ENE,61,9.0,13.0,33,0.00,,,0.00,882.000000,,2013-07-25 20:43:00,
2013-07-25 14:53:00,83.0,51.0,-100.00,ENE,61,9.0,13.0,33,0.00,,,0.00,882.000000,,2013-07-25 20:53:00,
2013-07-25 15:32:00,85.0,50.0,-100.00,ENE,62,8.0,14.0,30,0.00,,,0.00,848.000000,,2013-07-25 21:32:00,
2013-07-25 15:44:00,85.0,50.0,-100.00,ENE,62,8.0,14.0,30,0.00,,,0.00,848.000000,,2013-07-25 21:44:00,
2013-07-25 15:52:00,85.0,50.0,-100.00,ENE,62,8.0,14.0,30,0.00,,,0.00,848.000000,,2013-07-25 21:52:00,
2013-07-25 16:32:00,86.0,50.0,-100.00,NE,35,6.0,14.0,29,0.00,,,0.00,752.000000,,2013-07-25 22:32:00,
2013-07-25 16:43:00,86.0,50.0,-100.00,NE,35,6.0,14.0,29,0.00,,,0.00,752.000000,,2013-07-25 22:43:00,
2013-07-25 16:52:00,86.0,50.0,-100.00,NE,35,6.0,14.0,29,0.00,,,0.00,752.000000,,2013-07-25 22:52:00,
2013-07-25 17:32:00,85.0,50.0,-100.00,NE,49,6.0,17.0,30,0.00,,,0.00,627.000000,,2013-07-25 23:32:00,
2013-07-25 17:43:00,85.0,50.0,-100.00,NE,49,6.0,17.0,30,0.00,,,0.00,627.000000,,2013-07-25 23:43:00,
2013-07-25 17:52:00,85.0,50.0,-100.00,NE,49,6.0,17.0,30,0.00,,,0.00,627.000000,,2013-07-25 23:52:00,
2013-07-25 18:33:00,85.0,51.0,-100.00,ENE,59,8.0,16.0,31,0.00,,,0.00,467.000000,,2013-07-26 00:33:00,
2013-07-25 18:43:00,85.0,51.0,-100.00,ENE,59,8.0,16.0,31,0.00,,,0.00,467.000000,,2013-07-26 00:43:00,
2013-07-25 18:52:00,85.0,51.0,-100.00,ENE,59,8.0,16.0,31,0.00,,,0.00,467.000000,,2013-07-26 00:52:00,
2013-07-25 19:32:00,82.0,50.0,-100.00,ENE,59,10.0,17.0,33,0.00,,,0.00,300.000000,,2013-07-26 01:32:00,
2013-07-25 19:43:00,82.0,50.0,-100.00,ENE,59,10.0,17.0,33,0.00,,,0.00,300.000000,,2013-07-26 01:43:00,
2013-07-25 19:52:00,82.0,50.0,-100.00,ENE,59,10.0,17.0,33,0.00,,,0.00,300.000000,,2013-07-26 01:52:00,
2013-07-25 21:32:00,74.0,51.0,-100.00,ENE,69,10.0,16.0,44,0.00,,,0.00,27.000000,,2013-07-26 03:32:00,
2013-07-25 21:43:00,74.0,51.0,-100.00,ENE,69,10.0,16.0,44,0.00,,,0.00,27.000000,,2013-07-26 03:43:00,
2013-07-25 21:53:00,74.0,51.0,-100.00,ENE,69,10.0,16.0,44,0.00,,,0.00,27.000000,,2013-07-26 03:53:00,
2013-07-25 22:32:00,71.0,51.0,-100.00,ENE,76,11.0,17.0,49,0.00,,,0.00,0.000000,,2013-07-26 04:32:00,
2013-07-25 22:42:00,71.0,51.0,-100.00,ENE,76,11.0,17.0,49,0.00,,,0.00,0.000000,,2013-07-26 04:42:00,
2013-07-25 22:53:00,71.0,51.0,-100.00,ENE,76,11.0,17.0,49,0.00,,,0.00,0.000000,,2013-07-26 04:53:00,
2013-07-25 23:32:00,69.0,51.0,-100.00,East,80,6.0,13.0,52,0.00,,,0.00,0.000000,,2013-07-26 05:32:00,
2013-07-25 23:43:00,69.0,51.0,-100.00,East,80,6.0,13.0,52,0.00,,,0.00,0.000000,,2013-07-26 05:43:00,
2013-07-25 23:52:00,69.0,51.0,-100.00,East,80,6.0,13.0,52,0.00,,,0.00,0.000000,,2013-07-26 05:52:00,